createdAt,value
2022-09-14T00:01:34.902Z,97833.31
2022-09-14T00:04:06.621Z,97826.59
2022-09-14T00:06:34.453Z,97829.66
2022-09-14T00:09:02.484Z,97818.25
2022-09-14T00:11:31.978Z,97813.16
2022-09-14T00:14:01.244Z,97811.94
2022-09-14T00:16:33.437Z,97815.81
2022-09-14T00:19:06.103Z,97813.44
2022-09-14T00:21:36.528Z,97817.75
2022-09-14T00:24:05.208Z,97817.28
2022-09-14T00:26:32.089Z,97805.47
2022-09-14T00:29:04.741Z,97795.31
2022-09-14T00:31:37.927Z,97792.22
2022-09-14T00:34:09.638Z,97793.75
2022-09-14T00:36:44.745Z,97796.94
2022-09-14T00:39:12.242Z,97788.31
2022-09-14T00:41:43.724Z,97780.47
2022-09-14T00:44:10.427Z,97771.44
2022-09-14T00:46:41.365Z,97773.69
2022-09-14T00:49:22.437Z,97762.63
2022-09-14T00:52:23.613Z,97763.06
2022-09-14T00:54:57.298Z,97757.19
2022-09-14T00:57:27.241Z,97743.47
2022-09-14T00:59:55.369Z,97749.78
2022-09-14T01:02:25.557Z,97747.06
2022-09-14T01:04:53.370Z,97738.81
2022-09-14T01:07:38.523Z,97749.41
2022-09-14T01:10:54.368Z,97743.44
2022-09-14T01:13:58.554Z,97737.88
2022-09-14T01:16:42.480Z,97733.56
2022-09-14T01:19:43.304Z,97733.94
2022-09-14T01:22:32.499Z,97739.84
2022-09-14T01:25:45.505Z,97758.28
2022-09-14T01:28:48.804Z,97795.09
2022-09-14T01:31:41.360Z,97864.78
2022-09-14T01:34:28.154Z,97930.59
2022-09-14T01:37:12.925Z,97969.19
2022-09-14T01:39:50.778Z,97954.81
2022-09-14T01:42:22.446Z,97923.97
2022-09-14T01:44:59.840Z,97902.72
2022-09-14T01:47:41.090Z,97860.81
2022-09-14T01:50:16.001Z,97859.63
2022-09-14T01:52:59.548Z,97848.22
2022-09-14T01:55:35.250Z,97858.06
2022-09-14T01:58:10.397Z,97869.50
2022-09-14T02:00:45.861Z,97860.22
2022-09-14T02:03:27.406Z,97865.69
2022-09-14T02:06:16.592Z,97866.47
2022-09-14T02:08:43.855Z,97852.31
2022-09-14T02:11:10.937Z,97848.41
2022-09-14T02:13:37.834Z,97843.31
2022-09-14T02:16:05.142Z,97841.31
2022-09-14T02:18:32.340Z,97848.75
2022-09-14T02:21:10.958Z,97861.63
2022-09-14T02:23:38.268Z,97858.88
2022-09-14T02:26:05.223Z,97849.41
2022-09-14T02:28:32.338Z,97834.84
2022-09-14T02:31:24.059Z,97831.59
2022-09-14T02:34:30.170Z,97801.78
2022-09-14T02:37:16.287Z,97780.22
2022-09-14T02:39:57.054Z,97793.22
2022-09-14T02:42:46.278Z,97802.22
2022-09-14T02:46:01.276Z,97788.19
2022-09-14T02:48:58.597Z,97777.25
2022-09-14T02:51:49.005Z,97774.03
2022-09-14T02:54:33.992Z,97771.28
2022-09-14T02:57:04.909Z,97767.84
2022-09-14T02:59:31.739Z,97758.78
2022-09-14T03:02:00.672Z,97748.63
2022-09-14T03:04:28.595Z,97729.06
2022-09-14T03:06:56.124Z,97728.25
2022-09-14T03:09:22.931Z,97719.59
2022-09-14T03:11:49.756Z,97724.34
2022-09-14T03:14:16.602Z,97725.94
2022-09-14T03:16:43.560Z,97724.81
2022-09-14T03:19:12.133Z,97726.81
2022-09-14T03:21:40.129Z,97726.06
2022-09-14T03:24:07.558Z,97717.50
2022-09-14T03:26:36.896Z,97713.59
2022-09-14T03:29:05.858Z,97711.19
2022-09-14T03:31:34.341Z,97705.72
2022-09-14T03:34:02.611Z,97696.25
2022-09-14T03:36:31.571Z,97709.13
2022-09-14T03:39:01.828Z,97712.63
2022-09-14T03:41:29.530Z,97715.03
2022-09-14T03:43:56.367Z,97721.34
2022-09-14T03:46:25.726Z,97709.63
2022-09-14T03:48:55.139Z,97708.44
2022-09-14T03:51:23.013Z,97701.03
2022-09-14T03:53:49.960Z,97697.09
2022-09-14T03:56:21.332Z,97687.72
2022-09-14T03:58:49.683Z,97678.25
2022-09-14T04:01:19.631Z,97674.69
2022-09-14T04:03:47.806Z,97679.03
2022-09-14T04:06:16.732Z,97683.75
2022-09-14T04:08:46.200Z,97686.13
2022-09-14T04:11:23.889Z,97688.53
2022-09-14T04:13:52.862Z,97681.94
2022-09-14T04:16:21.332Z,97674.47
2022-09-14T04:18:49.046Z,97677.56
2022-09-14T04:21:21.088Z,97674.06
2022-09-14T04:24:13.271Z,97680.34
2022-09-14T04:26:35.365Z,97718.44
2022-09-14T04:29:02.292Z,97718.50
2022-09-14T04:31:32.798Z,97718.16
2022-09-14T04:33:59.665Z,97731.09
2022-09-14T04:36:30.762Z,97745.66
2022-09-14T04:39:03.166Z,97746.06
2022-09-14T04:41:31.667Z,97749.22
2022-09-14T04:43:59.873Z,97762.53
2022-09-14T04:46:31.070Z,97757.81
2022-09-14T04:48:58.654Z,97752.31
2022-09-14T04:51:30.804Z,97754.66
2022-09-14T04:54:02.181Z,97745.13
2022-09-14T04:56:32.463Z,97751.34
2022-09-14T04:59:04.148Z,97739.59
2022-09-14T05:01:38.890Z,97728.19
2022-09-14T05:04:08.506Z,97733.28
2022-09-14T05:06:39.075Z,97738.06
2022-09-14T05:09:14.465Z,97737.69
2022-09-14T05:11:42.116Z,97729.50
2022-09-14T05:14:13.094Z,97728.78
2022-09-14T05:16:42.316Z,97725.72
2022-09-14T05:19:17.437Z,97727.31
2022-09-14T05:21:45.390Z,97723.81
2022-09-14T05:24:18.378Z,97729.66
2022-09-14T05:26:46.561Z,97727.72
2022-09-14T05:29:16.889Z,97726.09
2022-09-14T05:31:44.367Z,97726.50
2022-09-14T05:34:11.988Z,97726.50
2022-09-14T05:36:40.656Z,97730.47
2022-09-14T05:39:08.485Z,97730.06
2022-09-14T05:41:35.702Z,97740.28
2022-09-14T05:44:02.845Z,97741.06
2022-09-14T05:46:29.662Z,97741.09
2022-09-14T05:48:57.396Z,97729.78
2022-09-14T05:51:27.327Z,97721.53
2022-09-14T05:53:57.411Z,97722.75
2022-09-14T05:56:28.567Z,97734.53
2022-09-14T05:58:55.841Z,97739.28
2022-09-14T06:01:30.414Z,97734.94
2022-09-14T06:04:02.304Z,97738.47
2022-09-14T06:06:31.401Z,97741.16
2022-09-14T06:08:58.721Z,97742.69
2022-09-14T06:11:33.352Z,97732.81
2022-09-14T06:14:00.607Z,97730.13
2022-09-14T06:16:28.721Z,97729.66
2022-09-14T06:18:58.151Z,97727.31
2022-09-14T06:21:31.063Z,97727.38
2022-09-14T06:23:58.520Z,97734.50
2022-09-14T06:26:26.091Z,97726.75
2022-09-14T06:28:53.456Z,97731.13
2022-09-14T06:31:23.653Z,97730.75
2022-09-14T06:33:51.727Z,97722.59
2022-09-14T06:36:23.320Z,97715.19
2022-09-14T06:38:50.551Z,97709.69
2022-09-14T06:41:21.716Z,97712.06
2022-09-14T06:43:50.309Z,97713.69
2022-09-14T06:46:23.497Z,97723.09
2022-09-14T06:48:53.046Z,97719.22
2022-09-14T06:51:26.299Z,97713.72
2022-09-14T06:53:53.896Z,97705.09
2022-09-14T06:56:21.050Z,97698.03
2022-09-14T06:58:49.831Z,97717.31
2022-09-14T07:01:19.736Z,97718.50
2022-09-14T07:03:47.486Z,97725.97
2022-09-14T07:06:30.158Z,97712.63
2022-09-14T07:08:57.251Z,97714.19
2022-09-14T07:11:27.440Z,97713.41
2022-09-14T07:13:58.785Z,97727.59
2022-09-14T07:16:32.047Z,97722.94
2022-09-14T07:19:02.880Z,97720.97
2022-09-14T07:21:31.851Z,97724.53
2022-09-14T07:23:59.048Z,97727.69
2022-09-14T07:26:39.637Z,97724.56
2022-09-14T07:29:10.875Z,97721.03
2022-09-14T07:31:50.926Z,97724.19
2022-09-14T07:34:20.284Z,97723.78
2022-09-14T07:36:47.190Z,97719.84
2022-09-14T07:39:17.630Z,97725.38
2022-09-14T07:41:44.935Z,97727.34
2022-09-14T07:44:16.440Z,97737.59
2022-09-14T07:46:45.808Z,97743.09
2022-09-14T07:49:13.162Z,97753.72
2022-09-14T07:51:40.400Z,97762.41
2022-09-14T07:54:11.640Z,97754.53
2022-09-14T07:56:39.522Z,97747.47
2022-09-14T08:01:53.277Z,97752.97
2022-09-14T08:04:21.143Z,97773.06
2022-09-14T08:06:48.227Z,97775.81
2022-09-14T08:09:15.107Z,97775.44
2022-09-14T08:11:42.137Z,97764.38
2022-09-14T08:14:11.688Z,97766.75
2022-09-14T08:16:40.913Z,97777.75
2022-09-14T08:19:19.605Z,97782.50
2022-09-14T08:21:48.036Z,97786.03
2022-09-14T08:24:18.739Z,97804.56
2022-09-14T08:26:47.307Z,97809.69
2022-09-14T08:29:16.722Z,97811.66
2022-09-14T08:31:45.616Z,97817.53
2022-09-14T08:34:16.005Z,97816.75
2022-09-14T08:36:46.150Z,97814.78
2022-09-14T08:39:15.876Z,97800.19
2022-09-14T08:41:59.425Z,97801.38
2022-09-14T08:44:39.643Z,97814.75
2022-09-14T08:47:13.744Z,97819.88
2022-09-14T08:49:51.890Z,97829.72
2022-09-14T08:52:28.308Z,97828.53
2022-09-14T08:55:02.728Z,97839.16
2022-09-14T08:57:49.840Z,97826.13
2022-09-14T09:00:23.842Z,97807.97
2022-09-14T09:03:32.319Z,97803.25
2022-09-14T09:06:41.910Z,97809.84
2022-09-14T09:09:37.849Z,97801.53
2022-09-14T09:12:05.889Z,97804.31
2022-09-14T09:14:41.464Z,97820.88
2022-09-14T09:17:27.346Z,97827.94
2022-09-14T09:20:19.816Z,97832.22
2022-09-14T09:23:07.497Z,97824.31
2022-09-14T09:26:25.551Z,97817.19
2022-09-14T09:28:57.367Z,97806.38
2022-09-14T09:31:37.478Z,97809.97
2022-09-14T09:34:04.646Z,97800.16
2022-09-14T09:36:39.202Z,97792.66
2022-09-14T09:39:07.091Z,97797.16
2022-09-14T09:42:07.459Z,97775.28
2022-09-14T09:44:59.279Z,97787.81
2022-09-14T09:47:42.999Z,97782.97
2022-09-14T09:50:17.979Z,97777.31
2022-09-14T09:52:55.681Z,97769.91
2022-09-14T09:55:29.315Z,97766.13
2022-09-14T09:57:56.118Z,97754.59
2022-09-14T10:00:29.768Z,97753.66
2022-09-14T10:02:57.731Z,97757.28
2022-09-14T10:05:33.617Z,97759.59
2022-09-14T10:08:07.015Z,97743.19
2022-09-14T10:10:36.679Z,97751.53
2022-09-14T10:13:14.501Z,97743.66
2022-09-14T10:15:43.126Z,97746.59
2022-09-14T10:18:13.126Z,97749.63
2022-09-14T10:20:53.555Z,97748.19
2022-09-14T10:23:20.293Z,97730.41
2022-09-14T10:25:50.897Z,97724.53
2022-09-14T10:28:32.073Z,97707.97
2022-09-14T10:31:05.051Z,97712.00
2022-09-14T10:33:35.857Z,97710.72
2022-09-14T10:36:19.805Z,97695.97
2022-09-14T10:39:16.638Z,97689.75
2022-09-14T10:41:55.449Z,97680.28
2022-09-14T10:44:49.509Z,97674.13
2022-09-14T10:47:34.012Z,97675.81
2022-09-14T10:50:28.598Z,97662.03
2022-09-14T10:53:20.061Z,97665.06
2022-09-14T10:56:03.771Z,97653.69
2022-09-14T10:59:11.440Z,97654.97
2022-09-14T11:02:15.546Z,97648.19
2022-09-14T11:05:07.851Z,97648.72
2022-09-14T11:08:22.193Z,97645.84
2022-09-14T11:11:14.301Z,97639.69
2022-09-14T11:14:02.497Z,97647.31
2022-09-14T11:16:47.626Z,97646.19
2022-09-14T11:19:43.290Z,97643.69
2022-09-14T11:22:30.976Z,97644.34
2022-09-14T11:25:16.435Z,97637.13
2022-09-14T11:27:57.240Z,97636.78
2022-09-14T11:30:39.394Z,97635.19
2022-09-14T11:33:19.128Z,97631.91
2022-09-14T11:35:54.948Z,97632.72
2022-09-14T11:38:28.957Z,97629.56
2022-09-14T11:41:36.565Z,97633.28
2022-09-14T11:44:30.941Z,97642.50
2022-09-14T11:47:07.262Z,97628.06
2022-09-14T11:49:58.000Z,97628.75
2022-09-14T11:52:30.140Z,97620.41
2022-09-14T11:54:59.650Z,97620.38
2022-09-14T11:57:33.742Z,97633.31
2022-09-14T12:00:30.453Z,97628.06
2022-09-14T12:03:21.773Z,97626.66
2022-09-14T12:05:51.090Z,97647.69
2022-09-14T12:08:33.262Z,97638.28
2022-09-14T12:11:29.938Z,97643.19
2022-09-14T12:14:29.642Z,97653.34
2022-09-14T12:20:31.045Z,97660.38
2022-09-14T12:23:37.753Z,97684.28
2022-09-14T12:26:10.770Z,97684.41
2022-09-14T12:28:40.690Z,97686.88
2022-09-14T12:31:32.753Z,97686.63
2022-09-14T12:34:15.509Z,97675.28
2022-09-14T12:36:42.396Z,97676.19
2022-09-14T12:39:30.408Z,97679.44
2022-09-14T12:42:00.714Z,97686.72
2022-09-14T12:44:43.620Z,97697.19
2022-09-14T12:47:25.905Z,97709.38
2022-09-14T12:49:57.606Z,97750.34
2022-09-14T12:53:03.489Z,97812.84
2022-09-14T12:56:06.415Z,97822.19
2022-09-14T12:59:09.998Z,97844.63
2022-09-14T13:02:22.446Z,97825.03
2022-09-14T13:04:55.371Z,97827.78
2022-09-14T13:07:25.900Z,97821.09
2022-09-14T13:09:57.418Z,97822.25
2022-09-14T13:12:39.214Z,97819.53
2022-09-14T13:15:22.246Z,97812.00
2022-09-14T13:18:18.303Z,97788.38
2022-09-14T13:20:57.543Z,97792.31
2022-09-14T13:23:45.093Z,97794.28
2022-09-14T13:26:20.682Z,97785.63
2022-09-14T13:28:54.087Z,97787.22
2022-09-14T13:31:36.798Z,97766.72
2022-09-14T13:34:05.421Z,97746.25
2022-09-14T13:36:42.119Z,97749.41
2022-09-14T13:39:25.089Z,97741.53
2022-09-14T13:41:52.287Z,97741.53
2022-09-14T13:44:26.505Z,97736.81
2022-09-14T13:46:56.556Z,97733.66
2022-09-14T13:49:23.945Z,97739.97
2022-09-14T13:51:50.754Z,97748.22
2022-09-14T13:54:29.652Z,97734.44
2022-09-14T13:57:24.409Z,97739.97
2022-09-14T14:00:16.668Z,97738.78
2022-09-14T14:02:55.546Z,97738.38
2022-09-14T14:05:40.271Z,97734.44
2022-09-14T14:08:35.306Z,97721.06
2022-09-14T14:11:08.432Z,97728.16
2022-09-14T14:13:38.439Z,97727.31
2022-09-14T14:16:17.820Z,97734.03
2022-09-14T14:18:53.906Z,97728.13
2022-09-14T14:21:32.426Z,97725.78
2022-09-14T14:24:28.288Z,97720.25
2022-09-14T14:26:57.969Z,97731.69
2022-09-14T14:29:26.344Z,97736.00
2022-09-14T14:31:56.586Z,97736.44
2022-09-14T14:34:29.229Z,97736.44
2022-09-14T14:36:57.533Z,97743.13
2022-09-14T14:39:25.646Z,97738.03
2022-09-14T14:41:53.578Z,97723.47
2022-09-14T14:44:30.614Z,97712.41
2022-09-14T14:46:58.120Z,97714.00
2022-09-14T14:49:25.536Z,97699.81
2022-09-14T14:51:53.155Z,97697.47
2022-09-14T14:54:20.030Z,97703.78
2022-09-14T14:56:49.825Z,97707.72
2022-09-14T14:59:19.537Z,97687.22
2022-09-14T15:01:50.549Z,97687.63
2022-09-14T15:04:17.384Z,97672.69
2022-09-14T15:06:46.789Z,97649.06
2022-09-14T15:09:18.125Z,97631.72
2022-09-14T15:11:45.696Z,97605.34
2022-09-14T15:14:21.290Z,97600.66
2022-09-14T15:16:50.448Z,97602.63
2022-09-14T15:19:17.514Z,97609.28
2022-09-14T15:21:44.520Z,97603.00
2022-09-14T15:24:12.186Z,97611.25
2022-09-14T15:26:39.161Z,97612.44
2022-09-14T15:29:06.385Z,97612.06
2022-09-14T15:31:33.390Z,97604.16
2022-09-14T15:34:00.499Z,97593.53
2022-09-14T15:36:51.782Z,97578.91
2022-09-14T15:39:25.866Z,97578.44
2022-09-14T15:41:55.658Z,97578.44
2022-09-14T15:44:23.336Z,97574.88
2022-09-14T15:46:50.961Z,97557.53
2022-09-14T15:49:22.295Z,97544.91
2022-09-14T15:51:52.966Z,97553.59
2022-09-14T15:54:26.156Z,97561.06
2022-09-14T15:56:56.472Z,97565.03
2022-09-14T15:59:23.680Z,97570.47
2022-09-14T16:01:50.746Z,97577.56
2022-09-14T16:04:18.830Z,97579.06
2022-09-14T16:06:48.217Z,97577.44
2022-09-14T16:09:17.370Z,97581.41
2022-09-14T16:11:44.429Z,97578.63
2022-09-14T16:14:11.624Z,97573.84
2022-09-14T16:16:39.962Z,97565.19
2022-09-14T16:19:13.259Z,97556.88
2022-09-14T16:21:42.169Z,97559.28
2022-09-14T16:24:14.873Z,97565.31
2022-09-14T16:26:43.025Z,97576.00
2022-09-14T16:29:14.230Z,97569.69
2022-09-14T16:31:43.709Z,97576.69
2022-09-14T16:34:25.053Z,97576.28
2022-09-14T16:36:52.865Z,97569.13
2022-09-14T16:39:24.922Z,97583.75
2022-09-14T16:41:54.007Z,97572.34
2022-09-14T16:44:27.743Z,97594.81
2022-09-14T16:46:57.904Z,97600.34
2022-09-14T16:49:27.903Z,97613.31
2022-09-14T16:51:56.805Z,97608.97
2022-09-14T16:54:25.890Z,97616.50
2022-09-14T16:56:57.910Z,97612.97
2022-09-14T16:59:25.489Z,97622.00
2022-09-14T17:01:54.988Z,97611.38
2022-09-14T17:04:24.706Z,97611.81
2022-09-14T17:06:53.088Z,97608.28
2022-09-14T17:09:24.299Z,97609.88
2022-09-14T17:11:53.166Z,97611.84
2022-09-14T17:14:28.949Z,97614.22
2022-09-14T17:16:56.453Z,97613.03
2022-09-14T17:19:24.124Z,97615.41
2022-09-14T17:21:51.888Z,97620.97
2022-09-14T17:24:20.640Z,97622.53
2022-09-14T17:26:47.892Z,97630.41
2022-09-14T17:29:15.322Z,97636.31
2022-09-14T17:31:44.800Z,97641.84
2022-09-14T17:34:15.860Z,97627.28
2022-09-14T17:36:43.310Z,97640.69
2022-09-14T17:39:12.409Z,97633.19
2022-09-14T17:41:42.553Z,97633.94
2022-09-14T17:44:13.380Z,97637.13
2022-09-14T17:46:50.792Z,97643.81
2022-09-14T17:49:21.666Z,97636.75
2022-09-14T17:51:49.533Z,97639.09
2022-09-14T17:54:17.606Z,97642.66
2022-09-14T17:56:44.960Z,97640.72
2022-09-14T17:59:15.753Z,97638.72
2022-09-14T18:01:42.553Z,97630.84
2022-09-14T18:04:12.381Z,97636.38
2022-09-14T18:06:44.635Z,97628.88
2022-09-14T18:09:30.877Z,97634.38
2022-09-14T18:11:58.067Z,97638.75
2022-09-14T18:14:25.979Z,97639.94
2022-09-14T18:16:52.716Z,97639.13
2022-09-14T18:19:19.680Z,97637.94
2022-09-14T18:21:51.672Z,97640.72
2022-09-14T18:24:19.350Z,97628.91
2022-09-14T18:26:46.264Z,97629.31
2022-09-14T18:29:16.218Z,97632.88
2022-09-14T18:31:43.953Z,97636.44
2022-09-14T18:34:11.537Z,97634.06
2022-09-14T18:36:38.873Z,97635.63
2022-09-14T18:39:05.652Z,97647.03
2022-09-14T18:41:34.211Z,97642.31
2022-09-14T18:44:02.522Z,97654.16
2022-09-14T18:46:30.113Z,97652.56
2022-09-14T18:49:02.087Z,97656.50
2022-09-14T18:51:31.414Z,97655.72
2022-09-14T18:54:04.921Z,97666.75
2022-09-14T18:56:33.697Z,97665.16
2022-09-14T18:59:02.532Z,97672.66
2022-09-14T19:01:29.911Z,97674.66
2022-09-14T19:03:57.626Z,97673.44
2022-09-14T19:06:24.718Z,97662.81
2022-09-14T19:08:51.991Z,97668.34
2022-09-14T19:11:29.202Z,97661.25
2022-09-14T19:14:10.104Z,97656.53
2022-09-14T19:16:40.096Z,97658.13
2022-09-14T19:19:09.616Z,97653.00
2022-09-14T19:21:36.556Z,97645.53
2022-09-14T19:24:11.384Z,97643.94
2022-09-14T19:26:48.879Z,97641.56
2022-09-14T19:29:20.112Z,97648.97
2022-09-14T19:31:51.618Z,97640.28
2022-09-14T19:34:20.967Z,97636.78
2022-09-14T19:36:48.368Z,97637.94
2022-09-14T19:39:16.196Z,97639.09
2022-09-14T19:41:44.177Z,97639.47
2022-09-14T19:44:12.054Z,97646.88
2022-09-14T19:46:39.994Z,97654.31
2022-09-14T19:49:14.120Z,97648.78
2022-09-14T19:51:40.973Z,97650.69
2022-09-14T19:54:08.817Z,97652.28
2022-09-14T19:56:35.789Z,97658.53
2022-09-14T19:59:05.298Z,97660.09
2022-09-14T20:01:34.565Z,97674.28
2022-09-14T20:04:03.333Z,97670.38
2022-09-14T20:06:34.844Z,97669.16
2022-09-14T20:09:15.949Z,97669.56
2022-09-14T20:11:45.083Z,97668.34
2022-09-14T20:14:16.711Z,97671.81
2022-09-14T20:16:56.930Z,97672.59
2022-09-14T20:19:29.431Z,97667.81
2022-09-14T20:21:56.592Z,97674.44
2022-09-14T20:24:27.737Z,97677.22
2022-09-14T20:26:59.629Z,97676.84
2022-09-14T20:29:30.497Z,97683.59
2022-09-14T20:31:58.567Z,97683.22
2022-09-14T20:34:25.466Z,97678.91
2022-09-14T20:36:53.737Z,97690.25
2022-09-14T20:39:23.025Z,97691.00
2022-09-14T20:41:50.201Z,97690.94
2022-09-14T20:44:21.885Z,97698.00
2022-09-14T20:46:50.357Z,97698.00
2022-09-14T20:49:21.989Z,97693.28
2022-09-14T20:51:49.678Z,97691.31
2022-09-14T20:54:19.791Z,97694.09
2022-09-14T20:56:46.906Z,97691.34
2022-09-14T20:59:17.125Z,97691.34
2022-09-14T21:01:46.321Z,97682.31
2022-09-14T21:04:17.519Z,97683.00
2022-09-14T21:06:48.285Z,97684.13
2022-09-14T21:09:18.130Z,97688.88
2022-09-14T21:11:46.940Z,97686.56
2022-09-14T21:14:18.859Z,97692.81
2022-09-14T21:16:48.494Z,97692.38
2022-09-14T21:19:26.897Z,97694.75
2022-09-14T21:21:54.383Z,97686.56
2022-09-14T21:24:23.307Z,97688.91
2022-09-14T21:26:50.159Z,97688.97
2022-09-14T21:29:23.382Z,97683.88
2022-09-14T21:31:51.426Z,97692.13
2022-09-14T21:34:18.773Z,97703.47
2022-09-14T21:36:49.400Z,97703.47
2022-09-14T21:39:23.207Z,97700.66
2022-09-14T21:41:58.076Z,97696.63
2022-09-14T21:44:35.482Z,97695.06
2022-09-14T21:47:04.312Z,97714.28
2022-09-14T21:49:34.723Z,97716.31
2022-09-14T21:52:02.115Z,97708.50
2022-09-14T21:54:28.863Z,97710.09
2022-09-14T21:56:56.020Z,97715.56
2022-09-14T21:59:23.824Z,97723.41
2022-09-14T22:01:51.651Z,97719.88
2022-09-14T22:04:22.261Z,97709.69
2022-09-14T22:06:51.379Z,97723.00
2022-09-14T22:09:22.414Z,97711.66
2022-09-14T22:11:49.325Z,97722.63
2022-09-14T22:14:20.487Z,97723.75
2022-09-14T22:16:49.035Z,97715.75
2022-09-14T22:19:30.165Z,97708.59
2022-09-14T22:21:58.471Z,97703.00
2022-09-14T22:24:38.577Z,97703.78
2022-09-14T22:27:10.685Z,97704.53
2022-09-14T22:29:40.788Z,97717.91
2022-09-14T22:32:11.039Z,97725.06
2022-09-14T22:34:39.987Z,97732.06
2022-09-14T22:37:07.230Z,97743.34
2022-09-14T22:39:33.961Z,97773.50
2022-09-14T22:42:00.740Z,97772.38
2022-09-14T22:44:27.453Z,97777.13
2022-09-14T22:46:54.184Z,97770.13
2022-09-14T22:49:20.985Z,97772.53
2022-09-14T22:51:47.720Z,97770.22
2022-09-14T22:54:14.654Z,97767.13
2022-09-14T22:56:41.504Z,97771.84
2022-09-14T22:59:10.741Z,97772.19
2022-09-14T23:01:41.084Z,97772.59
2022-09-14T23:04:11.740Z,97773.31
2022-09-14T23:06:44.443Z,97762.78
2022-09-14T23:09:17.508Z,97755.47
2022-09-14T23:11:44.854Z,97762.97
2022-09-14T23:14:16.100Z,97751.97
2022-09-14T23:16:45.166Z,97753.97
2022-09-14T23:19:18.204Z,97745.31
2022-09-14T23:21:46.497Z,97734.31
2022-09-14T23:24:13.781Z,97735.44
2022-09-14T23:26:41.270Z,97750.81
2022-09-14T23:29:14.001Z,97746.09
2022-09-14T23:31:40.809Z,97742.94
2022-09-14T23:34:07.786Z,97750.75
2022-09-14T23:36:35.355Z,97749.19
2022-09-14T23:39:02.423Z,97742.50
2022-09-14T23:41:29.598Z,97743.66
2022-09-14T23:43:56.372Z,97728.78
2022-09-14T23:46:23.483Z,97728.34
2022-09-14T23:48:50.652Z,97734.56
2022-09-14T23:51:18.559Z,97728.22
2022-09-14T23:53:45.971Z,97740.00
2022-09-14T23:56:13.200Z,97742.66
2022-09-14T23:58:41.718Z,97731.63
